Texas Enterprise — KSDF — position and weather

sailwx.info

Track history (hours):
 
Tides and Currents Weather Stations Pressure Air Temp Water Temp Dewpoint Dewpoint Depression Visibility Wind Speed Wind Dir Waves Ship Positions

Texas Enterprise

More information available from US FCC via Universal Licensing System and Coast Guard Vessel Documentation Center.

Last reported at 2014-Sep-14 22:31 UTC. Time now 2014-Sep-16 15:32 UTC.
Position N 27°36' W 083°01'.

Type: Cargo ship. MMSI: 366163000.

Date/timePositionNaut miles runAvg speedWind from/ knotsBaromVisibWave heightAir tempDewpointWater temp
2014-Sep-14 22:31N 27°36' W 083°01'2 1.9
2014-Sep-14 21:34N 27°36' W 082°59'4 4.2
2014-Sep-14 20:34N 27°36' W 082°54'1211.6
2014-Sep-14 19:33N 27°37' W 082°41'1110.9
2014-Sep-14 18:34N 27°44' W 082°32'1010.3
2014-Sep-14 17:33N 27°53' W 082°26'2 2.1
2014-Sep-14 16:31N 27°55' W 082°25'0 0.0
2014-Sep-14 15:31N 27°55' W 082°25'0 0.0
2014-Sep-14 14:31N 27°55' W 082°25'0 0.0
2014-Sep-14 13:33N 27°55' W 082°25'0 0.0
2014-Sep-14 12:33N 27°55' W 082°25'0 0.0
2014-Sep-14 11:30N 27°55' W 082°25'0 0.0
2014-Sep-14 10:30N 27°55' W 082°25'0 0.0
2014-Sep-14 09:30N 27°55' W 082°25'0 0.0
2014-Sep-14 08:31N 27°55' W 082°25'0 0.0
2014-Sep-14 07:31N 27°55' W 082°25'0 0.0
2014-Sep-14 06:31N 27°55' W 082°25'0 0.0
2014-Sep-14 05:31N 27°55' W 082°25'0 0.0
2014-Sep-14 04:31N 27°55' W 082°25'0 0.0
2014-Sep-14 03:33N 27°55' W 082°25'0 0.0
2014-Sep-14 02:33N 27°55' W 082°25'0 0.0
2014-Sep-14 01:30N 27°55' W 082°25'0 0.0
2014-Sep-13 21:34N 27°55' W 082°25'0 0.0
2014-Sep-13 20:33N 27°55' W 082°25'0 0.0
2014-Sep-13 19:33N 27°55' W 082°25'0 0.0
2014-Sep-13 18:31N 27°55' W 082°25'0 0.0
2014-Sep-13 17:31N 27°55' W 082°25'0 0.0
2014-Sep-13 16:28N 27°55' W 082°25'0 0.0
2014-Sep-13 15:31N 27°55' W 082°25'0 0.0
2014-Sep-13 14:33N 27°55' W 082°25'0 0.0
2014-Sep-13 13:33N 27°55' W 082°25'0 0.0
2014-Sep-13 12:33N 27°55' W 082°25'0 0.0
2014-Sep-13 11:30N 27°55' W 082°25'0 0.0
2014-Sep-13 10:31N 27°55' W 082°25'0 0.0
2014-Sep-13 09:31N 27°55' W 082°25'0 0.0
2014-Sep-13 08:31N 27°55' W 082°25'0 0.0
2014-Sep-13 07:31N 27°55' W 082°25'0 0.0
2014-Sep-13 06:33N 27°55' W 082°25'0 0.0
2014-Sep-13 05:33N 27°55' W 082°25'0 0.0
2014-Sep-13 04:30N 27°55' W 082°25'0 0.0
2014-Sep-13 03:30N 27°55' W 082°25'0 0.0
2014-Sep-13 02:30N 27°55' W 082°25'0 0.0
2014-Sep-13 01:30N 27°55' W 082°25'0 0.0
2014-Sep-13 00:34N 27°55' W 082°25'0 0.0
2014-Sep-12 23:33N 27°55' W 082°25'0 0.0
2014-Sep-12 22:33N 27°55' W 082°25'0 0.0
2014-Sep-12 21:33N 27°55' W 082°25'0 0.0
2014-Sep-12 20:31N 27°55' W 082°25'0 0.0
2014-Sep-12 19:31N 27°55' W 082°25'0 0.2
2014-Sep-12 18:33N 27°55' W 082°26'9 8.7
2014-Sep-12 17:34N 27°47' W 082°30'9 9.5
2014-Sep-12 16:34N 27°39' W 082°35'1 1.5
2014-Sep-12 15:32N 27°38' W 082°34'0 0.0
2014-Sep-12 14:23N 27°38' W 082°34'0 0.0
2014-Sep-12 13:32N 27°38' W 082°34'0 0.0
2014-Sep-12 12:32N 27°38' W 082°34'0 0.0
2014-Sep-12 11:32N 27°38' W 082°34'0 0.0
2014-Sep-12 10:32N 27°38' W 082°34'0 0.0
2014-Sep-12 09:30N 27°38' W 082°34'0 0.0
2014-Sep-12 08:30N 27°38' W 082°34'0 0.0
2014-Sep-12 07:33N 27°38' W 082°34'0 0.0
2014-Sep-12 06:33N 27°38' W 082°34'0 0.0
2014-Sep-12 05:33N 27°38' W 082°34'0 0.0
2014-Sep-12 04:29N 27°38' W 082°34'0 0.0
2014-Sep-12 03:32N 27°38' W 082°34'0 0.0
2014-Sep-12 02:29N 27°38' W 082°34'0 0.0
2014-Sep-12 01:30N 27°38' W 082°34'0 0.0
2014-Sep-12 00:32N 27°38' W 082°34'0 0.0
2014-Sep-11 23:20N 27°38' W 082°34'0 0.0
2014-Sep-11 22:33N 27°38' W 082°34'0 0.0
2014-Sep-11 21:17N 27°38' W 082°34'0 0.0
2014-Sep-11 20:33N 27°38' W 082°34'1 0.6
2014-Sep-11 19:33N 27°38' W 082°34'1211.8
2014-Sep-11 18:33N 27°37' W 082°47'1313.4
2014-Sep-11 17:33N 27°34' W 083°02'  
2014-Sep-09 06:33N 19°35' W 095°53'1211.7
2014-Sep-09 05:33N 19°23' W 095°56'1111.1
2014-Sep-09 04:34N 19°13' W 096°00'7 7.0
2014-Sep-09 03:33N 19°12' W 096°08'0 0.0
2014-Sep-09 02:31N 19°12' W 096°08'0 0.0
2014-Sep-09 01:31N 19°12' W 096°08'0 0.0
2014-Sep-09 00:32N 19°12' W 096°08'0 0.0
2014-Sep-08 23:32N 19°12' W 096°08'0 0.0
2014-Sep-08 22:32N 19°12' W 096°08'0 0.0
2014-Sep-08 21:32N 19°12' W 096°08'0 0.0
2014-Sep-08 20:32N 19°12' W 096°08'0 0.0
2014-Sep-08 19:32N 19°12' W 096°08'0 0.0
2014-Sep-08 18:32N 19°12' W 096°08'0 0.0
2014-Sep-08 17:31N 19°12' W 096°08'0 0.0
2014-Sep-08 16:31N 19°12' W 096°08'0 0.0
2014-Sep-08 15:32N 19°12' W 096°08'0 0.0
2014-Sep-08 14:32N 19°12' W 096°08'0 0.0
2014-Sep-08 13:32N 19°12' W 096°08'0 0.0
2014-Sep-08 12:32N 19°12' W 096°08'0 0.0
2014-Sep-08 11:32N 19°12' W 096°08'0 0.0
2014-Sep-08 10:32N 19°12' W 096°08'0 0.0
2014-Sep-08 09:32N 19°12' W 096°08'0 0.0
2014-Sep-08 08:31N 19°12' W 096°08'0 0.0
2014-Sep-08 07:31N 19°12' W 096°08'0 0.0
2014-Sep-08 06:31N 19°12' W 096°08'0 0.0
2014-Sep-08 05:31N 19°12' W 096°08'0 0.0
2014-Sep-08 04:31N 19°12' W 096°08'0 0.0
2014-Sep-08 03:32N 19°12' W 096°08'0 0.0
2014-Sep-08 02:32N 19°12' W 096°08'0 0.0
2014-Sep-08 01:32N 19°12' W 096°08'0 0.0
2014-Sep-08 00:32N 19°12' W 096°08'0 0.0
2014-Sep-07 23:32N 19°12' W 096°08'0 0.0
2014-Sep-07 22:32N 19°12' W 096°08'0 0.0
2014-Sep-07 21:32N 19°12' W 096°08'0 0.0
2014-Sep-07 20:31N 19°12' W 096°08'0 0.0
2014-Sep-07 19:32N 19°12' W 096°08'0 0.0
2014-Sep-07 18:31N 19°12' W 096°08'0 0.0
2014-Sep-07 17:31N 19°12' W 096°08'0 0.0
2014-Sep-07 16:31N 19°12' W 096°08'0 0.0
2014-Sep-07 15:31N 19°12' W 096°08'0 0.0
2014-Sep-07 14:33N 19°12' W 096°08'0 0.0
2014-Sep-07 13:33N 19°12' W 096°08'0 0.0
2014-Sep-07 12:33N 19°12' W 096°08'0 0.0
2014-Sep-07 11:33N 19°12' W 096°08'0 0.0
2014-Sep-07 10:33N 19°12' W 096°08'0 0.0
2014-Sep-07 09:33N 19°12' W 096°08'0 0.0
2014-Sep-07 08:33N 19°12' W 096°08'0 0.0
2014-Sep-07 07:30N 19°12' W 096°08'0 0.0
2014-Sep-07 06:31N 19°12' W 096°08'0 0.0
2014-Sep-07 05:34N 19°12' W 096°08'0 0.0
2014-Sep-07 04:33N 19°12' W 096°08'0 0.0
2014-Sep-07 03:33N 19°12' W 096°08'0 0.0
2014-Sep-07 02:33N 19°12' W 096°08'0 0.0
2014-Sep-07 01:33N 19°12' W 096°08'0 0.0
2014-Sep-07 00:33N 19°12' W 096°08'0 0.0
2014-Sep-06 23:27N 19°12' W 096°08'0 0.0
2014-Sep-06 22:33N 19°12' W 096°08'0 0.0
2014-Sep-06 21:33N 19°12' W 096°08'0 0.0
2014-Sep-06 20:32N 19°12' W 096°08'0 0.0
2014-Sep-06 19:32N 19°12' W 096°08'0 0.0
2014-Sep-06 18:32N 19°12' W 096°08'0 0.0
2014-Sep-06 17:32N 19°12' W 096°08'0 0.0
2014-Sep-06 16:32N 19°12' W 096°08'0 0.0
2014-Sep-06 15:32N 19°12' W 096°08'0 0.0
2014-Sep-06 14:33N 19°12' W 096°08'0 0.0
2014-Sep-06 13:33N 19°12' W 096°08'0 0.0
2014-Sep-06 12:33N 19°12' W 096°08'0 0.0
2014-Sep-06 11:32N 19°12' W 096°08'0 0.0
2014-Sep-06 10:32N 19°12' W 096°08'0 0.0
2014-Sep-06 09:32N 19°12' W 096°08'0 0.0
2014-Sep-06 08:32N 19°12' W 096°08'0 0.0
2014-Sep-06 07:32N 19°12' W 096°08'0 0.0
2014-Sep-06 06:32N 19°12' W 096°08'0 0.0
2014-Sep-06 05:33N 19°12' W 096°08'0 0.0
2014-Sep-06 04:33N 19°12' W 096°08'0 0.0
2014-Sep-06 03:33N 19°12' W 096°08'0 0.0
2014-Sep-06 02:33N 19°12' W 096°08'0 0.0
2014-Sep-06 01:32N 19°12' W 096°08'0 0.0
2014-Sep-06 00:32N 19°12' W 096°08'0 0.0
2014-Sep-05 23:32N 19°12' W 096°08'0 0.0
2014-Sep-05 22:32N 19°12' W 096°08'0 0.0
2014-Sep-05 21:32N 19°12' W 096°08'0 0.0
2014-Sep-05 20:32N 19°12' W 096°08'0 0.0
2014-Sep-05 19:32N 19°12' W 096°08'0 0.0
2014-Sep-05 18:32N 19°12' W 096°08'0 0.0
2014-Sep-05 17:32N 19°12' W 096°08'0 0.0
2014-Sep-05 16:32N 19°12' W 096°08'0 0.0
2014-Sep-05 15:07N 19°12' W 096°08'0 0.0
2014-Sep-05 14:32N 19°12' W 096°08'0 0.0
2014-Sep-05 13:32N 19°12' W 096°08'0 0.0
2014-Sep-05 12:33N 19°12' W 096°08'0 0.0
2014-Sep-05 11:32N 19°12' W 096°08'0 0.0
2014-Sep-05 10:32N 19°12' W 096°08'0 0.0
2014-Sep-05 09:32N 19°12' W 096°08'0 0.0
2014-Sep-05 08:32N 19°12' W 096°08'0 0.0
2014-Sep-05 07:32N 19°12' W 096°08'0 0.0
2014-Sep-05 06:32N 19°12' W 096°08'0 0.0
2014-Sep-05 05:30N 19°12' W 096°08'0 0.0
2014-Sep-05 04:33N 19°12' W 096°08'0 0.0
2014-Sep-05 03:33N 19°12' W 096°08'0 0.0
2014-Sep-05 02:32N 19°12' W 096°08'0 0.0
2014-Sep-05 01:32N 19°12' W 096°08'0 0.0
2014-Sep-05 00:32N 19°12' W 096°08'0 0.0
2014-Sep-04 23:32N 19°12' W 096°08'0 0.0
2014-Sep-04 22:32N 19°12' W 096°08'  
Track history (hours):
 
Tides and Currents Weather Stations Pressure Air Temp Water Temp Dewpoint Dewpoint Depression Visibility Wind Speed Wind Dir Waves Ship Positions

Texas Enterprise

More information available from US FCC via Universal Licensing System and Coast Guard Vessel Documentation Center.

Last reported at 2014-Sep-14 22:31 UTC. Time now 2014-Sep-16 15:32 UTC.
Position N 27°36' W 083°01'.

Type: Cargo ship. MMSI: 366163000.

Date/timePositionNaut miles runAvg speedWind from/ knotsBaromVisibWave heightAir tempDewpointWater temp
2014-Sep-14 22:31N 27°36' W 083°01'2 1.9
2014-Sep-14 21:34N 27°36' W 082°59'4 4.2
2014-Sep-14 20:34N 27°36' W 082°54'1211.6
2014-Sep-14 19:33N 27°37' W 082°41'1110.9
2014-Sep-14 18:34N 27°44' W 082°32'1010.3
2014-Sep-14 17:33N 27°53' W 082°26'2 2.1
2014-Sep-14 16:31N 27°55' W 082°25'0 0.0
2014-Sep-14 15:31N 27°55' W 082°25'0 0.0
2014-Sep-14 14:31N 27°55' W 082°25'0 0.0
2014-Sep-14 13:33N 27°55' W 082°25'0 0.0
2014-Sep-14 12:33N 27°55' W 082°25'0 0.0
2014-Sep-14 11:30N 27°55' W 082°25'0 0.0
2014-Sep-14 10:30N 27°55' W 082°25'0 0.0
2014-Sep-14 09:30N 27°55' W 082°25'0 0.0
2014-Sep-14 08:31N 27°55' W 082°25'0 0.0
2014-Sep-14 07:31N 27°55' W 082°25'0 0.0
2014-Sep-14 06:31N 27°55' W 082°25'0 0.0
2014-Sep-14 05:31N 27°55' W 082°25'0 0.0
2014-Sep-14 04:31N 27°55' W 082°25'0 0.0
2014-Sep-14 03:33N 27°55' W 082°25'0 0.0
2014-Sep-14 02:33N 27°55' W 082°25'0 0.0
2014-Sep-14 01:30N 27°55' W 082°25'0 0.0
2014-Sep-13 21:34N 27°55' W 082°25'0 0.0
2014-Sep-13 20:33N 27°55' W 082°25'0 0.0
2014-Sep-13 19:33N 27°55' W 082°25'0 0.0
2014-Sep-13 18:31N 27°55' W 082°25'0 0.0
2014-Sep-13 17:31N 27°55' W 082°25'0 0.0
2014-Sep-13 16:28N 27°55' W 082°25'0 0.0
2014-Sep-13 15:31N 27°55' W 082°25'0 0.0
2014-Sep-13 14:33N 27°55' W 082°25'0 0.0
2014-Sep-13 13:33N 27°55' W 082°25'0 0.0
2014-Sep-13 12:33N 27°55' W 082°25'0 0.0
2014-Sep-13 11:30N 27°55' W 082°25'0 0.0
2014-Sep-13 10:31N 27°55' W 082°25'0 0.0
2014-Sep-13 09:31N 27°55' W 082°25'0 0.0
2014-Sep-13 08:31N 27°55' W 082°25'0 0.0
2014-Sep-13 07:31N 27°55' W 082°25'0 0.0
2014-Sep-13 06:33N 27°55' W 082°25'0 0.0
2014-Sep-13 05:33N 27°55' W 082°25'0 0.0
2014-Sep-13 04:30N 27°55' W 082°25'0 0.0
2014-Sep-13 03:30N 27°55' W 082°25'0 0.0
2014-Sep-13 02:30N 27°55' W 082°25'0 0.0
2014-Sep-13 01:30N 27°55' W 082°25'0 0.0
2014-Sep-13 00:34N 27°55' W 082°25'0 0.0
2014-Sep-12 23:33N 27°55' W 082°25'0 0.0
2014-Sep-12 22:33N 27°55' W 082°25'0 0.0
2014-Sep-12 21:33N 27°55' W 082°25'0 0.0
2014-Sep-12 20:31N 27°55' W 082°25'0 0.0
2014-Sep-12 19:31N 27°55' W 082°25'0 0.2
2014-Sep-12 18:33N 27°55' W 082°26'9 8.7
2014-Sep-12 17:34N 27°47' W 082°30'9 9.5
2014-Sep-12 16:34N 27°39' W 082°35'1 1.5
2014-Sep-12 15:32N 27°38' W 082°34'0 0.0
2014-Sep-12 14:23N 27°38' W 082°34'0 0.0
2014-Sep-12 13:32N 27°38' W 082°34'0 0.0
2014-Sep-12 12:32N 27°38' W 082°34'0 0.0
2014-Sep-12 11:32N 27°38' W 082°34'0 0.0
2014-Sep-12 10:32N 27°38' W 082°34'0 0.0
2014-Sep-12 09:30N 27°38' W 082°34'0 0.0
2014-Sep-12 08:30N 27°38' W 082°34'0 0.0
2014-Sep-12 07:33N 27°38' W 082°34'0 0.0
2014-Sep-12 06:33N 27°38' W 082°34'0 0.0
2014-Sep-12 05:33N 27°38' W 082°34'0 0.0
2014-Sep-12 04:29N 27°38' W 082°34'0 0.0
2014-Sep-12 03:32N 27°38' W 082°34'0 0.0
2014-Sep-12 02:29N 27°38' W 082°34'0 0.0
2014-Sep-12 01:30N 27°38' W 082°34'0 0.0
2014-Sep-12 00:32N 27°38' W 082°34'0 0.0
2014-Sep-11 23:20N 27°38' W 082°34'0 0.0
2014-Sep-11 22:33N 27°38' W 082°34'0 0.0
2014-Sep-11 21:17N 27°38' W 082°34'0 0.0
2014-Sep-11 20:33N 27°38' W 082°34'1 0.6
2014-Sep-11 19:33N 27°38' W 082°34'1211.8
2014-Sep-11 18:33N 27°37' W 082°47'1313.4
2014-Sep-11 17:33N 27°34' W 083°02'  
2014-Sep-09 06:33N 19°35' W 095°53'1211.7
2014-Sep-09 05:33N 19°23' W 095°56'1111.1
2014-Sep-09 04:34N 19°13' W 096°00'7 7.0
2014-Sep-09 03:33N 19°12' W 096°08'0 0.0
2014-Sep-09 02:31N 19°12' W 096°08'0 0.0
2014-Sep-09 01:31N 19°12' W 096°08'0 0.0
2014-Sep-09 00:32N 19°12' W 096°08'0 0.0
2014-Sep-08 23:32N 19°12' W 096°08'0 0.0
2014-Sep-08 22:32N 19°12' W 096°08'0 0.0
2014-Sep-08 21:32N 19°12' W 096°08'0 0.0
2014-Sep-08 20:32N 19°12' W 096°08'0 0.0
2014-Sep-08 19:32N 19°12' W 096°08'0 0.0
2014-Sep-08 18:32N 19°12' W 096°08'0 0.0
2014-Sep-08 17:31N 19°12' W 096°08'0 0.0
2014-Sep-08 16:31N 19°12' W 096°08'0 0.0
2014-Sep-08 15:32N 19°12' W 096°08'0 0.0
2014-Sep-08 14:32N 19°12' W 096°08'0 0.0
2014-Sep-08 13:32N 19°12' W 096°08'0 0.0
2014-Sep-08 12:32N 19°12' W 096°08'0 0.0
2014-Sep-08 11:32N 19°12' W 096°08'0 0.0
2014-Sep-08 10:32N 19°12' W 096°08'0 0.0
2014-Sep-08 09:32N 19°12' W 096°08'0 0.0
2014-Sep-08 08:31N 19°12' W 096°08'0 0.0
2014-Sep-08 07:31N 19°12' W 096°08'0 0.0
2014-Sep-08 06:31N 19°12' W 096°08'0 0.0
2014-Sep-08 05:31N 19°12' W 096°08'0 0.0
2014-Sep-08 04:31N 19°12' W 096°08'0 0.0
2014-Sep-08 03:32N 19°12' W 096°08'0 0.0
2014-Sep-08 02:32N 19°12' W 096°08'0 0.0
2014-Sep-08 01:32N 19°12' W 096°08'0 0.0
2014-Sep-08 00:32N 19°12' W 096°08'0 0.0
2014-Sep-07 23:32N 19°12' W 096°08'0 0.0
2014-Sep-07 22:32N 19°12' W 096°08'0 0.0
2014-Sep-07 21:32N 19°12' W 096°08'0 0.0
2014-Sep-07 20:31N 19°12' W 096°08'0 0.0
2014-Sep-07 19:32N 19°12' W 096°08'0 0.0
2014-Sep-07 18:31N 19°12' W 096°08'0 0.0
2014-Sep-07 17:31N 19°12' W 096°08'0 0.0
2014-Sep-07 16:31N 19°12' W 096°08'0 0.0
2014-Sep-07 15:31N 19°12' W 096°08'0 0.0
2014-Sep-07 14:33N 19°12' W 096°08'0 0.0
2014-Sep-07 13:33N 19°12' W 096°08'0 0.0
2014-Sep-07 12:33N 19°12' W 096°08'0 0.0
2014-Sep-07 11:33N 19°12' W 096°08'0 0.0
2014-Sep-07 10:33N 19°12' W 096°08'0 0.0
2014-Sep-07 09:33N 19°12' W 096°08'0 0.0
2014-Sep-07 08:33N 19°12' W 096°08'0 0.0
2014-Sep-07 07:30N 19°12' W 096°08'0 0.0
2014-Sep-07 06:31N 19°12' W 096°08'0 0.0
2014-Sep-07 05:34N 19°12' W 096°08'0 0.0
2014-Sep-07 04:33N 19°12' W 096°08'0 0.0
2014-Sep-07 03:33N 19°12' W 096°08'0 0.0
2014-Sep-07 02:33N 19°12' W 096°08'0 0.0
2014-Sep-07 01:33N 19°12' W 096°08'0 0.0
2014-Sep-07 00:33N 19°12' W 096°08'0 0.0
2014-Sep-06 23:27N 19°12' W 096°08'0 0.0
2014-Sep-06 22:33N 19°12' W 096°08'0 0.0
2014-Sep-06 21:33N 19°12' W 096°08'0 0.0
2014-Sep-06 20:32N 19°12' W 096°08'0 0.0
2014-Sep-06 19:32N 19°12' W 096°08'0 0.0
2014-Sep-06 18:32N 19°12' W 096°08'0 0.0
2014-Sep-06 17:32N 19°12' W 096°08'0 0.0
2014-Sep-06 16:32N 19°12' W 096°08'0 0.0
2014-Sep-06 15:32N 19°12' W 096°08'0 0.0
2014-Sep-06 14:33N 19°12' W 096°08'0 0.0
2014-Sep-06 13:33N 19°12' W 096°08'0 0.0
2014-Sep-06 12:33N 19°12' W 096°08'0 0.0
2014-Sep-06 11:32N 19°12' W 096°08'0 0.0
2014-Sep-06 10:32N 19°12' W 096°08'0 0.0
2014-Sep-06 09:32N 19°12' W 096°08'0 0.0
2014-Sep-06 08:32N 19°12' W 096°08'0 0.0
2014-Sep-06 07:32N 19°12' W 096°08'0 0.0
2014-Sep-06 06:32N 19°12' W 096°08'0 0.0
2014-Sep-06 05:33N 19°12' W 096°08'0 0.0
2014-Sep-06 04:33N 19°12' W 096°08'0 0.0
2014-Sep-06 03:33N 19°12' W 096°08'0 0.0
2014-Sep-06 02:33N 19°12' W 096°08'0 0.0
2014-Sep-06 01:32N 19°12' W 096°08'0 0.0
2014-Sep-06 00:32N 19°12' W 096°08'0 0.0
2014-Sep-05 23:32N 19°12' W 096°08'0 0.0
2014-Sep-05 22:32N 19°12' W 096°08'0 0.0
2014-Sep-05 21:32N 19°12' W 096°08'0 0.0
2014-Sep-05 20:32N 19°12' W 096°08'0 0.0
2014-Sep-05 19:32N 19°12' W 096°08'0 0.0
2014-Sep-05 18:32N 19°12' W 096°08'0 0.0
2014-Sep-05 17:32N 19°12' W 096°08'0 0.0
2014-Sep-05 16:32N 19°12' W 096°08'0 0.0
2014-Sep-05 15:07N 19°12' W 096°08'0 0.0
2014-Sep-05 14:32N 19°12' W 096°08'0 0.0
2014-Sep-05 13:32N 19°12' W 096°08'0 0.0
2014-Sep-05 12:33N 19°12' W 096°08'0 0.0
2014-Sep-05 11:32N 19°12' W 096°08'0 0.0
2014-Sep-05 10:32N 19°12' W 096°08'0 0.0
2014-Sep-05 09:32N 19°12' W 096°08'0 0.0
2014-Sep-05 08:32N 19°12' W 096°08'0 0.0
2014-Sep-05 07:32N 19°12' W 096°08'0 0.0
2014-Sep-05 06:32N 19°12' W 096°08'0 0.0
2014-Sep-05 05:30N 19°12' W 096°08'0 0.0
2014-Sep-05 04:33N 19°12' W 096°08'0 0.0
2014-Sep-05 03:33N 19°12' W 096°08'0 0.0
2014-Sep-05 02:32N 19°12' W 096°08'0 0.0
2014-Sep-05 01:32N 19°12' W 096°08'0 0.0
2014-Sep-05 00:32N 19°12' W 096°08'0 0.0
2014-Sep-04 23:32N 19°12' W 096°08'0 0.0
2014-Sep-04 22:32N 19°12' W 096°08'  

Dump ship's entire track history